createdAt,value
2018-08-31T00:01:57.801Z,11.80
2018-08-31T00:04:39.182Z,11.70
2018-08-31T00:07:24.316Z,11.70
2018-08-31T00:10:19.419Z,11.70
2018-08-31T00:12:48.398Z,11.70
2018-08-31T00:15:17.398Z,11.70
2018-08-31T00:17:46.577Z,11.60
2018-08-31T00:20:15.634Z,11.60
2018-08-31T00:22:44.559Z,11.50
2018-08-31T00:25:24.897Z,11.50
2018-08-31T00:28:05.037Z,11.50
2018-08-31T00:30:45.217Z,11.50
2018-08-31T00:33:58.531Z,11.40
2018-08-31T00:37:11.806Z,11.40
2018-08-31T00:41:00.729Z,11.40
2018-08-31T00:43:40.914Z,11.40
2018-08-31T00:46:09.946Z,11.30
2018-08-31T00:48:38.870Z,11.30
2018-08-31T00:51:09.093Z,11.30
2018-08-31T00:53:38.030Z,11.30
2018-08-31T00:56:07.037Z,11.30
2018-08-31T00:58:35.985Z,11.20
2018-08-31T01:01:05.225Z,11.20
2018-08-31T01:03:34.139Z,11.10
2018-08-31T01:06:03.106Z,11.10
2018-08-31T01:08:32.102Z,11.00
2018-08-31T01:11:01.046Z,11.00
2018-08-31T01:13:29.975Z,10.90
2018-08-31T01:15:59.042Z,10.90
2018-08-31T01:18:27.974Z,10.90
2018-08-31T01:20:56.902Z,10.90
2018-08-31T01:23:25.946Z,10.80
2018-08-31T01:25:54.897Z,10.80
2018-08-31T01:28:23.965Z,10.80
2018-08-31T01:30:52.928Z,10.80
2018-08-31T01:33:21.886Z,10.70
2018-08-31T01:35:50.814Z,10.70
2018-08-31T01:38:19.752Z,10.70
2018-08-31T01:40:48.685Z,10.70
2018-08-31T01:43:17.740Z,10.70
2018-08-31T01:45:46.735Z,10.70
2018-08-31T01:48:15.685Z,10.70
2018-08-31T01:50:49.830Z,10.70
2018-08-31T01:53:18.778Z,10.70
2018-08-31T01:55:48.855Z,10.60
2018-08-31T01:58:20.871Z,10.60
2018-08-31T02:00:49.840Z,10.60
2018-08-31T02:03:18.769Z,10.60
2018-08-31T02:05:47.745Z,10.60
2018-08-31T02:08:16.741Z,10.60
2018-08-31T02:10:45.781Z,10.50
2018-08-31T02:13:15.062Z,10.60
2018-08-31T02:15:44.022Z,10.50
2018-08-31T02:18:13.022Z,10.50
2018-08-31T02:20:41.962Z,10.50
2018-08-31T02:23:10.908Z,10.50
2018-08-31T02:25:39.832Z,10.40
2018-08-31T02:28:08.764Z,10.40
2018-08-31T02:30:38.813Z,10.40
2018-08-31T02:33:07.962Z,10.40
2018-08-31T02:35:37.125Z,10.30
2018-08-31T02:38:06.350Z,10.30
2018-08-31T02:40:35.289Z,10.30
2018-08-31T02:43:04.273Z,10.30
2018-08-31T02:45:33.415Z,10.30
2018-08-31T02:48:02.402Z,10.30
2018-08-31T02:50:32.440Z,10.30
2018-08-31T02:53:01.393Z,10.30
2018-08-31T02:55:30.478Z,10.30
2018-08-31T02:57:59.507Z,10.30
2018-08-31T03:00:28.475Z,10.30
2018-08-31T03:02:57.421Z,10.30
2018-08-31T03:05:26.461Z,10.30
2018-08-31T03:07:55.488Z,10.30
2018-08-31T03:10:24.418Z,10.30
2018-08-31T03:12:53.451Z,10.30
2018-08-31T03:15:22.519Z,10.30
2018-08-31T03:17:51.630Z,10.30
2018-08-31T03:20:20.626Z,10.30
2018-08-31T03:22:49.648Z,10.30
2018-08-31T03:25:18.639Z,10.40
2018-08-31T03:27:47.638Z,10.40
2018-08-31T03:30:16.629Z,10.40
2018-08-31T03:32:45.653Z,10.30
2018-08-31T03:35:14.681Z,10.30
2018-08-31T03:37:43.714Z,10.30
2018-08-31T03:40:12.728Z,10.30
2018-08-31T03:42:41.694Z,10.30
2018-08-31T03:45:10.630Z,10.30
2018-08-31T03:47:39.578Z,10.30
2018-08-31T03:50:08.523Z,10.30
2018-08-31T03:52:37.498Z,10.30
2018-08-31T03:55:06.798Z,10.30
2018-08-31T03:57:35.750Z,10.30
2018-08-31T04:00:05.140Z,10.30
2018-08-31T04:02:34.155Z,10.30
2018-08-31T04:05:03.170Z,10.30
2018-08-31T04:07:32.183Z,10.30
2018-08-31T04:10:01.200Z,10.30
2018-08-31T04:12:30.162Z,10.30
2018-08-31T04:14:59.467Z,10.30
2018-08-31T04:17:28.409Z,10.20
2018-08-31T04:19:57.395Z,10.20
2018-08-31T04:22:26.397Z,10.20
2018-08-31T04:24:55.384Z,10.20
2018-08-31T04:27:24.368Z,10.20
2018-08-31T04:29:53.331Z,10.20
2018-08-31T04:32:22.281Z,10.20
2018-08-31T04:34:51.226Z,10.20
2018-08-31T04:37:20.310Z,10.10
2018-08-31T04:39:49.247Z,10.10
2018-08-31T04:42:18.223Z,10.20
2018-08-31T04:44:47.207Z,10.20
2018-08-31T04:47:16.129Z,10.10
2018-08-31T04:49:45.074Z,10.20
2018-08-31T04:52:14.036Z,10.20
2018-08-31T04:54:43.014Z,10.20
2018-08-31T04:57:11.970Z,10.10
2018-08-31T04:59:40.939Z,10.10
2018-08-31T05:02:09.947Z,10.10
2018-08-31T05:04:38.926Z,10.20
2018-08-31T05:07:07.885Z,10.20
2018-08-31T05:09:36.838Z,10.20
2018-08-31T05:12:05.951Z,10.20
2018-08-31T05:14:34.952Z,10.30
2018-08-31T05:17:03.942Z,10.30
2018-08-31T05:19:32.933Z,10.30
2018-08-31T05:22:01.894Z,10.30
2018-08-31T05:24:30.861Z,10.40
2018-08-31T05:26:59.854Z,10.40
2018-08-31T05:29:28.885Z,10.50
2018-08-31T05:31:57.838Z,10.50
2018-08-31T05:34:26.771Z,10.50
2018-08-31T05:36:55.795Z,10.60
2018-08-31T05:39:24.766Z,10.70
2018-08-31T05:41:53.751Z,10.70
2018-08-31T05:44:22.698Z,10.80
2018-08-31T05:46:51.642Z,10.80
2018-08-31T05:49:20.587Z,10.90
2018-08-31T05:51:49.549Z,10.90
2018-08-31T05:54:18.518Z,11.00
2018-08-31T05:56:47.475Z,11.00
2018-08-31T05:59:16.415Z,11.00
2018-08-31T06:01:45.404Z,11.10
2018-08-31T06:04:14.348Z,11.20
2018-08-31T06:06:43.334Z,11.20
2018-08-31T06:09:12.281Z,11.30
2018-08-31T06:11:41.266Z,11.40
2018-08-31T06:14:10.305Z,11.50
2018-08-31T06:16:39.538Z,11.50
2018-08-31T06:19:08.489Z,11.60
2018-08-31T06:21:37.410Z,11.70
2018-08-31T06:24:06.512Z,11.80
2018-08-31T06:26:35.484Z,11.80
2018-08-31T06:29:04.462Z,11.90
2018-08-31T06:31:33.410Z,12.00
2018-08-31T06:34:02.378Z,12.00
2018-08-31T06:36:31.351Z,12.10
2018-08-31T06:39:00.338Z,12.20
2018-08-31T06:41:29.283Z,12.40
2018-08-31T06:43:58.257Z,12.50
2018-08-31T06:46:27.202Z,12.60
2018-08-31T06:48:56.138Z,12.60
2018-08-31T06:51:25.134Z,12.80
2018-08-31T06:53:54.166Z,12.80
2018-08-31T06:56:23.357Z,13.00
2018-08-31T06:58:52.314Z,13.00
2018-08-31T07:01:21.238Z,13.20
2018-08-31T07:03:50.313Z,13.30
2018-08-31T07:06:19.262Z,13.40
2018-08-31T07:08:48.122Z,13.40
2018-08-31T07:11:17.077Z,13.60
2018-08-31T07:13:46.190Z,13.70
2018-08-31T07:16:15.129Z,13.80
2018-08-31T07:18:44.129Z,13.90
2018-08-31T07:21:13.045Z,14.00
2018-08-31T07:23:42.071Z,14.10
2018-08-31T07:26:11.018Z,14.30
2018-08-31T07:28:39.965Z,14.50
2018-08-31T07:31:08.879Z,14.60
2018-08-31T07:33:37.844Z,14.60
2018-08-31T07:36:06.775Z,14.80
2018-08-31T07:38:35.679Z,14.90
2018-08-31T07:41:04.630Z,14.90
2018-08-31T07:43:33.585Z,14.90
2018-08-31T07:46:02.531Z,15.00
2018-08-31T07:48:31.737Z,15.10
2018-08-31T07:51:00.714Z,15.20
2018-08-31T07:53:29.630Z,15.30
2018-08-31T07:55:58.591Z,15.40
2018-08-31T07:58:27.529Z,15.50
2018-08-31T08:00:56.498Z,15.60
2018-08-31T08:03:25.534Z,15.70
2018-08-31T08:05:54.494Z,15.80
2018-08-31T08:08:23.441Z,15.80
2018-08-31T08:10:52.402Z,15.80
2018-08-31T08:13:21.335Z,15.80
2018-08-31T08:15:50.281Z,15.70
2018-08-31T08:18:19.222Z,15.80
2018-08-31T08:20:48.182Z,16.00
2018-08-31T08:23:17.117Z,16.00
2018-08-31T08:25:46.074Z,16.00
2018-08-31T08:28:15.065Z,16.10
2018-08-31T08:30:44.017Z,16.20
2018-08-31T08:33:12.932Z,16.40
2018-08-31T08:35:41.858Z,16.60
2018-08-31T08:38:11.606Z,16.80
2018-08-31T08:40:40.821Z,17.00
2018-08-31T08:43:09.762Z,17.00
2018-08-31T08:45:38.679Z,17.10
2018-08-31T08:48:07.815Z,17.30
2018-08-31T08:50:36.707Z,17.30
2018-08-31T08:53:05.702Z,17.30
2018-08-31T08:55:34.745Z,17.60
2018-08-31T08:58:03.840Z,17.70
2018-08-31T09:00:32.810Z,18.00
2018-08-31T09:03:01.740Z,18.10
2018-08-31T09:05:31.123Z,18.20
2018-08-31T09:08:00.040Z,18.40
2018-08-31T09:10:28.985Z,18.60
2018-08-31T09:12:57.927Z,18.60
2018-08-31T09:15:26.854Z,18.70
2018-08-31T09:17:55.805Z,19.00
2018-08-31T09:20:24.870Z,19.30
2018-08-31T09:22:53.813Z,19.50
2018-08-31T09:25:22.758Z,19.60
2018-08-31T09:27:51.771Z,19.70
2018-08-31T09:30:25.998Z,19.80
2018-08-31T09:32:54.926Z,19.80
2018-08-31T09:35:23.861Z,19.80
2018-08-31T09:37:52.807Z,19.90
2018-08-31T09:40:21.842Z,20.00
2018-08-31T09:42:50.766Z,20.10
2018-08-31T09:45:19.682Z,20.00
2018-08-31T09:47:48.611Z,20.30
2018-08-31T09:50:17.601Z,20.50
2018-08-31T09:52:46.555Z,20.60
2018-08-31T09:55:15.482Z,20.50
2018-08-31T09:57:44.485Z,20.60
2018-08-31T10:00:13.393Z,20.70
2018-08-31T10:03:48.623Z,20.80
2018-08-31T10:06:17.536Z,20.90
2018-08-31T10:08:46.515Z,21.30
2018-08-31T10:11:15.431Z,21.50
2018-08-31T10:13:44.369Z,21.50
2018-08-31T10:16:13.303Z,21.70
2018-08-31T10:18:42.312Z,21.80
2018-08-31T10:21:11.204Z,21.90
2018-08-31T10:23:40.137Z,22.30
2018-08-31T10:26:09.113Z,22.60
2018-08-31T10:28:38.249Z,22.70
2018-08-31T10:31:07.274Z,22.60
2018-08-31T10:33:36.200Z,22.60
2018-08-31T10:36:05.451Z,22.40
2018-08-31T10:38:34.422Z,22.30
2018-08-31T10:41:03.318Z,22.30
2018-08-31T10:43:32.257Z,22.20
2018-08-31T10:46:01.206Z,22.40
2018-08-31T10:48:30.126Z,22.60
2018-08-31T10:50:59.081Z,22.70
2018-08-31T10:53:28.025Z,22.80
2018-08-31T10:55:56.998Z,22.70
2018-08-31T10:58:25.957Z,22.50
2018-08-31T11:00:54.876Z,22.30
2018-08-31T11:03:23.822Z,22.20
2018-08-31T11:05:52.738Z,22.20
2018-08-31T11:08:21.708Z,22.20
2018-08-31T11:10:50.608Z,22.30
2018-08-31T11:13:19.554Z,22.30
2018-08-31T11:15:48.466Z,22.30
2018-08-31T11:18:17.393Z,22.30
2018-08-31T11:20:46.319Z,22.20
2018-08-31T11:23:15.249Z,22.10
2018-08-31T11:25:44.201Z,21.70
2018-08-31T11:28:13.167Z,21.60
2018-08-31T11:30:42.116Z,21.90
2018-08-31T11:33:11.041Z,22.20
2018-08-31T11:35:39.992Z,22.50
2018-08-31T11:38:08.923Z,22.70
2018-08-31T11:40:37.915Z,22.80
2018-08-31T11:43:06.885Z,23.00
2018-08-31T11:45:35.830Z,22.80
2018-08-31T11:48:04.855Z,22.70
2018-08-31T11:50:33.768Z,22.90
2018-08-31T11:53:02.862Z,23.10
2018-08-31T11:55:31.841Z,23.10
2018-08-31T11:58:00.759Z,23.20
2018-08-31T12:00:29.804Z,23.30
2018-08-31T12:02:58.753Z,23.60
2018-08-31T12:05:27.686Z,23.90
2018-08-31T12:07:56.773Z,23.90
2018-08-31T12:10:25.584Z,23.90
2018-08-31T12:12:54.501Z,24.00
2018-08-31T12:15:23.682Z,24.00
2018-08-31T12:17:52.598Z,24.00
2018-08-31T12:20:21.514Z,23.60
2018-08-31T12:22:50.457Z,23.50
2018-08-31T12:25:19.445Z,23.90
2018-08-31T12:27:48.410Z,23.80
2018-08-31T12:30:17.361Z,23.90
2018-08-31T12:32:46.310Z,24.00
2018-08-31T12:35:15.269Z,24.10
2018-08-31T12:37:44.252Z,24.20
2018-08-31T12:40:13.195Z,24.20
2018-08-31T12:42:42.135Z,24.30
2018-08-31T12:45:11.069Z,24.40
2018-08-31T12:47:40.002Z,24.30
2018-08-31T12:50:08.905Z,24.30
2018-08-31T12:52:37.851Z,24.20
2018-08-31T12:55:06.789Z,23.90
2018-08-31T12:57:35.749Z,23.90
2018-08-31T13:00:04.868Z,24.10
2018-08-31T13:02:33.800Z,24.30
2018-08-31T13:05:02.778Z,24.70
2018-08-31T13:07:31.767Z,24.80
2018-08-31T13:10:00.722Z,25.00
2018-08-31T13:12:29.649Z,24.80
2018-08-31T13:14:58.579Z,24.80
2018-08-31T13:17:27.526Z,25.00
2018-08-31T13:19:56.534Z,24.70
2018-08-31T13:22:25.659Z,24.30
2018-08-31T13:24:54.664Z,24.30
2018-08-31T13:27:23.618Z,24.40
2018-08-31T13:29:52.614Z,24.20
2018-08-31T13:32:21.574Z,24.10
2018-08-31T13:34:50.521Z,23.70
2018-08-31T13:37:19.445Z,23.40
2018-08-31T13:39:48.394Z,23.40
2018-08-31T13:42:17.345Z,23.60
2018-08-31T13:44:46.277Z,23.70
2018-08-31T13:47:15.252Z,24.10
2018-08-31T13:49:44.195Z,24.30
2018-08-31T13:52:13.154Z,24.40
2018-08-31T13:54:42.070Z,24.30
2018-08-31T13:57:10.997Z,24.10
2018-08-31T13:59:39.942Z,24.00
2018-08-31T14:02:08.898Z,24.00
2018-08-31T14:04:37.851Z,23.90
2018-08-31T14:07:06.846Z,23.70
2018-08-31T14:09:35.834Z,23.60
2018-08-31T14:12:04.869Z,23.50
2018-08-31T14:14:33.826Z,23.60
2018-08-31T14:17:02.766Z,23.70
2018-08-31T14:19:31.706Z,24.00
2018-08-31T14:22:00.754Z,24.10
2018-08-31T14:24:29.882Z,24.30
2018-08-31T14:26:58.869Z,24.20
2018-08-31T14:29:27.932Z,24.10
2018-08-31T14:31:56.958Z,23.90
2018-08-31T14:34:26.060Z,23.50
2018-08-31T14:36:55.361Z,23.40
2018-08-31T14:39:24.378Z,23.20
2018-08-31T14:41:53.426Z,23.10
2018-08-31T14:44:22.407Z,23.30
2018-08-31T14:46:51.380Z,23.40
2018-08-31T14:49:20.352Z,23.60
2018-08-31T14:51:49.506Z,23.90
2018-08-31T14:54:18.619Z,23.80
2018-08-31T14:56:47.561Z,23.40
2018-08-31T14:59:16.646Z,23.20
2018-08-31T15:01:45.679Z,23.10
2018-08-31T15:04:14.616Z,23.10
2018-08-31T15:06:43.563Z,23.10
2018-08-31T15:09:12.545Z,23.30
2018-08-31T15:11:41.489Z,23.40
2018-08-31T15:14:10.494Z,23.60
2018-08-31T15:16:39.477Z,23.70
2018-08-31T15:19:08.418Z,23.80
2018-08-31T15:21:37.432Z,23.80
2018-08-31T15:24:06.542Z,24.00
2018-08-31T15:26:35.500Z,24.10
2018-08-31T15:29:04.559Z,24.10
2018-08-31T15:31:33.675Z,23.80
2018-08-31T15:34:02.533Z,23.40
2018-08-31T15:36:31.484Z,23.30
2018-08-31T15:39:00.405Z,23.10
2018-08-31T15:41:29.434Z,22.80
2018-08-31T15:43:58.366Z,22.70
2018-08-31T15:46:27.368Z,22.40
2018-08-31T15:48:56.377Z,22.30
2018-08-31T15:51:25.341Z,22.00
2018-08-31T15:53:54.841Z,22.00
2018-08-31T15:56:23.763Z,21.90
2018-08-31T15:58:53.708Z,22.00
2018-08-31T16:01:22.581Z,21.90
2018-08-31T16:03:51.530Z,21.90
2018-08-31T16:06:20.451Z,21.80
2018-08-31T16:08:49.381Z,21.70
2018-08-31T16:11:18.669Z,21.70
2018-08-31T16:13:47.570Z,21.70
2018-08-31T16:16:16.538Z,21.70
2018-08-31T16:18:45.517Z,21.50
2018-08-31T16:21:14.479Z,21.40
2018-08-31T16:23:43.413Z,21.30
2018-08-31T16:26:12.370Z,21.20
2018-08-31T16:28:41.325Z,21.10
2018-08-31T16:31:10.298Z,21.00
2018-08-31T16:33:39.237Z,21.10
2018-08-31T16:36:08.369Z,21.00
2018-08-31T16:38:37.308Z,21.00
2018-08-31T16:41:06.425Z,20.90
2018-08-31T16:43:35.367Z,20.90
2018-08-31T16:46:04.295Z,20.90
2018-08-31T16:48:33.212Z,20.80
2018-08-31T16:51:02.209Z,20.80
2018-08-31T16:53:31.220Z,20.80
2018-08-31T16:56:00.125Z,20.70
2018-08-31T16:58:29.076Z,20.70
2018-08-31T17:00:58.026Z,20.60
2018-08-31T17:03:26.946Z,20.60
2018-08-31T17:05:55.892Z,20.60
2018-08-31T17:08:24.861Z,20.40
2018-08-31T17:10:53.799Z,20.40
2018-08-31T17:13:22.693Z,20.30
2018-08-31T17:15:51.694Z,20.10
2018-08-31T17:18:20.648Z,20.00
2018-08-31T17:20:49.573Z,19.90
2018-08-31T17:23:18.540Z,19.80
2018-08-31T17:25:47.547Z,19.70
2018-08-31T17:28:21.866Z,19.60
2018-08-31T17:30:55.047Z,19.60
2018-08-31T17:33:29.401Z,19.50
2018-08-31T17:36:03.697Z,19.30
2018-08-31T17:38:32.625Z,19.30
2018-08-31T17:41:01.572Z,19.20
2018-08-31T17:43:30.498Z,19.10
2018-08-31T17:45:59.410Z,19.00
2018-08-31T17:48:28.622Z,18.90
2018-08-31T17:50:57.563Z,18.80
2018-08-31T17:53:26.488Z,18.70
2018-08-31T17:55:55.446Z,18.60
2018-08-31T17:58:24.375Z,18.50
2018-08-31T18:00:53.426Z,18.40
2018-08-31T18:03:22.356Z,18.30
2018-08-31T18:05:51.313Z,18.20
2018-08-31T18:08:20.622Z,18.00
2018-08-31T18:10:49.617Z,17.90
2018-08-31T18:13:18.603Z,17.90
2018-08-31T18:15:47.687Z,17.70
2018-08-31T18:18:16.572Z,17.60
2018-08-31T18:20:46.561Z,17.50
2018-08-31T18:23:15.498Z,17.30
2018-08-31T18:25:44.578Z,17.20
2018-08-31T18:28:13.461Z,17.10
2018-08-31T18:30:42.410Z,17.00
2018-08-31T18:33:11.422Z,16.80
2018-08-31T18:35:40.438Z,16.70
2018-08-31T18:38:09.361Z,16.50
2018-08-31T18:40:38.364Z,16.40
2018-08-31T18:43:07.352Z,16.30
2018-08-31T18:45:36.382Z,16.10
2018-08-31T18:48:05.331Z,16.00
2018-08-31T18:50:34.356Z,15.90
2018-08-31T18:53:03.385Z,15.80
2018-08-31T18:55:32.544Z,15.70
2018-08-31T18:58:01.768Z,15.60
2018-08-31T19:00:30.641Z,15.50
2018-08-31T19:02:59.575Z,15.50
2018-08-31T19:05:28.531Z,15.40
2018-08-31T19:07:57.502Z,15.30
2018-08-31T19:10:26.475Z,15.20
2018-08-31T19:12:55.523Z,15.20
2018-08-31T19:15:24.522Z,15.10
2018-08-31T19:17:53.469Z,15.00
2018-08-31T19:20:22.395Z,14.90
2018-08-31T19:22:51.346Z,14.80
2018-08-31T19:25:20.286Z,14.80
2018-08-31T19:27:49.213Z,14.70
2018-08-31T19:30:18.157Z,14.60
2018-08-31T19:32:47.087Z,14.60
2018-08-31T19:35:16.034Z,14.50
2018-08-31T19:37:44.979Z,14.50
2018-08-31T19:40:13.902Z,14.40
2018-08-31T19:42:42.849Z,14.30
2018-08-31T19:45:11.813Z,14.20
2018-08-31T19:47:40.737Z,14.10
2018-08-31T19:50:09.658Z,14.00
2018-08-31T19:52:38.626Z,14.00
2018-08-31T19:55:07.518Z,13.90
2018-08-31T19:57:36.463Z,13.90
2018-08-31T20:00:06.183Z,13.80
2018-08-31T20:02:35.123Z,13.70
2018-08-31T20:05:04.146Z,13.70
2018-08-31T20:07:33.243Z,13.60
2018-08-31T20:10:02.198Z,13.60
2018-08-31T20:12:31.221Z,13.50
2018-08-31T20:15:00.162Z,13.50
2018-08-31T20:17:29.101Z,13.40
2018-08-31T20:19:58.065Z,13.30
2018-08-31T20:22:27.009Z,13.30
2018-08-31T20:24:55.930Z,13.20
2018-08-31T20:27:24.881Z,13.10
2018-08-31T20:29:53.850Z,13.10
2018-08-31T20:32:22.783Z,13.00
2018-08-31T20:34:51.837Z,12.90
2018-08-31T20:37:20.799Z,12.90
2018-08-31T20:39:49.809Z,12.80
2018-08-31T20:42:18.747Z,12.80
2018-08-31T20:44:47.712Z,12.70
2018-08-31T20:47:16.695Z,12.60
2018-08-31T20:49:45.623Z,12.60
2018-08-31T20:52:14.713Z,12.60
2018-08-31T20:54:43.662Z,12.50
2018-08-31T20:57:12.614Z,12.50
2018-08-31T20:59:41.591Z,12.50
2018-08-31T21:02:10.793Z,12.40
2018-08-31T21:04:39.713Z,12.40
2018-08-31T21:07:08.646Z,12.40
2018-08-31T21:09:37.611Z,12.30
2018-08-31T21:12:06.593Z,12.20
2018-08-31T21:14:35.529Z,12.20
2018-08-31T21:17:04.509Z,12.10
2018-08-31T21:19:33.454Z,12.10
2018-08-31T21:22:02.433Z,12.10
2018-08-31T21:24:31.378Z,12.00
2018-08-31T21:27:00.368Z,11.90
2018-08-31T21:29:29.395Z,11.90
2018-08-31T21:31:58.423Z,11.90
2018-08-31T21:34:27.398Z,11.80
2018-08-31T21:36:56.335Z,11.80
2018-08-31T21:39:25.298Z,11.80
2018-08-31T21:41:54.293Z,11.70
2018-08-31T21:44:23.289Z,11.70
2018-08-31T21:46:52.246Z,11.60
2018-08-31T21:49:21.259Z,11.60
2018-08-31T21:51:50.153Z,11.70
2018-08-31T21:54:19.183Z,11.60
2018-08-31T21:56:48.142Z,11.60
2018-08-31T21:59:17.165Z,11.60
2018-08-31T22:01:51.618Z,11.60
2018-08-31T22:04:20.743Z,11.60
2018-08-31T22:06:49.733Z,11.50
2018-08-31T22:09:18.713Z,11.50
2018-08-31T22:11:47.680Z,11.50
2018-08-31T22:14:16.614Z,11.40
2018-08-31T22:16:45.649Z,11.40
2018-08-31T22:19:14.691Z,11.50
2018-08-31T22:21:43.744Z,11.30
2018-08-31T22:24:12.730Z,11.30
2018-08-31T22:26:41.666Z,11.30
2018-08-31T22:29:10.634Z,11.30
2018-08-31T22:31:39.551Z,11.30
2018-08-31T22:34:08.526Z,11.30
2018-08-31T22:36:37.479Z,11.30
2018-08-31T22:39:08.123Z,11.20
2018-08-31T22:41:37.089Z,11.20
2018-08-31T22:44:06.160Z,11.20
2018-08-31T22:46:35.354Z,11.10
2018-08-31T22:49:04.357Z,11.10
2018-08-31T22:51:33.264Z,11.10
2018-08-31T22:54:02.190Z,11.00
2018-08-31T22:56:31.159Z,11.00
2018-08-31T22:59:00.090Z,11.00
2018-08-31T23:01:29.057Z,11.00
2018-08-31T23:03:57.989Z,10.90
2018-08-31T23:06:26.915Z,10.90
2018-08-31T23:08:55.866Z,10.90
2018-08-31T23:11:24.761Z,10.90
2018-08-31T23:13:53.818Z,10.80
2018-08-31T23:16:22.608Z,10.80
2018-08-31T23:18:51.653Z,10.70
2018-08-31T23:21:20.610Z,10.70
2018-08-31T23:23:49.745Z,10.70
2018-08-31T23:26:18.810Z,10.60
2018-08-31T23:28:47.986Z,10.60
2018-08-31T23:31:16.959Z,10.60
2018-08-31T23:33:45.893Z,10.60
2018-08-31T23:36:14.904Z,10.60
2018-08-31T23:38:43.872Z,10.60
2018-08-31T23:41:12.810Z,10.50
2018-08-31T23:43:41.754Z,10.50
2018-08-31T23:46:10.699Z,10.40
2018-08-31T23:48:39.608Z,10.40
2018-08-31T23:51:08.525Z,10.30
2018-08-31T23:53:37.478Z,10.30
2018-08-31T23:56:06.426Z,10.30
2018-08-31T23:58:35.394Z,10.30
